sensor_id;sensor_type;location;lat;lon;timestamp;P1;durP1;ratioP1;P2;durP2;ratioP2
24443;SDS011;13346;50.984;5.822;2022-10-03T00:00:09;10.43;;;4.20;;
24443;SDS011;13346;50.984;5.822;2022-10-03T00:05:52;9.33;;;5.37;;
24443;SDS011;13346;50.984;5.822;2022-10-03T00:08:35;9.33;;;4.23;;
24443;SDS011;13346;50.984;5.822;2022-10-03T00:11:26;12.97;;;5.67;;
24443;SDS011;13346;50.984;5.822;2022-10-03T00:14:01;11.70;;;6.03;;
24443;SDS011;13346;50.984;5.822;2022-10-03T00:16:36;10.33;;;4.67;;
24443;SDS011;13346;50.984;5.822;2022-10-03T00:19:15;10.10;;;5.57;;
24443;SDS011;13346;50.984;5.822;2022-10-03T00:21:52;13.63;;;6.23;;
24443;SDS011;13346;50.984;5.822;2022-10-03T00:24:33;16.17;;;5.23;;
24443;SDS011;13346;50.984;5.822;2022-10-03T00:27:13;9.03;;;5.07;;
24443;SDS011;13346;50.984;5.822;2022-10-03T00:29:54;12.93;;;5.10;;
24443;SDS011;13346;50.984;5.822;2022-10-03T00:32:29;8.73;;;4.60;;
24443;SDS011;13346;50.984;5.822;2022-10-03T00:35:14;12.03;;;4.40;;
24443;SDS011;13346;50.984;5.822;2022-10-03T00:38:02;7.30;;;4.53;;
24443;SDS011;13346;50.984;5.822;2022-10-03T00:46:36;14.43;;;5.30;;
24443;SDS011;13346;50.984;5.822;2022-10-03T00:52:47;14.97;;;4.80;;
24443;SDS011;13346;50.984;5.822;2022-10-03T00:55:38;9.90;;;4.63;;
24443;SDS011;13346;50.984;5.822;2022-10-03T00:58:18;25.60;;;6.23;;
24443;SDS011;13346;50.984;5.822;2022-10-03T01:01:23;11.67;;;5.53;;
24443;SDS011;13346;50.984;5.822;2022-10-03T01:04:06;11.97;;;5.53;;
24443;SDS011;13346;50.984;5.822;2022-10-03T01:06:42;12.33;;;7.57;;
24443;SDS011;13346;50.984;5.822;2022-10-03T01:09:16;10.00;;;6.60;;
24443;SDS011;13346;50.984;5.822;2022-10-03T01:11:56;14.70;;;6.43;;
24443;SDS011;13346;50.984;5.822;2022-10-03T01:14:39;15.40;;;6.60;;
24443;SDS011;13346;50.984;5.822;2022-10-03T01:17:26;7.63;;;5.77;;
24443;SDS011;13346;50.984;5.822;2022-10-03T01:20:07;8.97;;;6.07;;
24443;SDS011;13346;50.984;5.822;2022-10-03T01:22:49;11.03;;;5.17;;
24443;SDS011;13346;50.984;5.822;2022-10-03T01:25:37;12.37;;;6.07;;
24443;SDS011;13346;50.984;5.822;2022-10-03T01:28:24;19.03;;;6.93;;
24443;SDS011;13346;50.984;5.822;2022-10-03T01:31:24;13.33;;;6.37;;
24443;SDS011;13346;50.984;5.822;2022-10-03T01:33:59;15.73;;;5.57;;
24443;SDS011;13346;50.984;5.822;2022-10-03T01:36:31;8.30;;;5.20;;
24443;SDS011;13346;50.984;5.822;2022-10-03T01:39:05;8.57;;;5.87;;
24443;SDS011;13346;50.984;5.822;2022-10-03T01:41:41;22.43;;;6.50;;
24443;SDS011;13346;50.984;5.822;2022-10-03T01:44:19;10.23;;;6.30;;
24443;SDS011;13346;50.984;5.822;2022-10-03T01:46:50;11.27;;;5.90;;
24443;SDS011;13346;50.984;5.822;2022-10-03T01:49:23;18.23;;;6.23;;
24443;SDS011;13346;50.984;5.822;2022-10-03T01:51:59;11.37;;;7.27;;
24443;SDS011;13346;50.984;5.822;2022-10-03T01:54:36;10.53;;;7.23;;
24443;SDS011;13346;50.984;5.822;2022-10-03T01:57:12;17.10;;;7.60;;
24443;SDS011;13346;50.984;5.822;2022-10-03T01:59:50;13.70;;;7.30;;
24443;SDS011;13346;50.984;5.822;2022-10-03T02:02:25;14.27;;;7.63;;
24443;SDS011;13346;50.984;5.822;2022-10-03T02:04:58;10.33;;;6.80;;
24443;SDS011;13346;50.984;5.822;2022-10-03T02:07:34;12.53;;;6.30;;
24443;SDS011;13346;50.984;5.822;2022-10-03T02:10:11;10.77;;;7.07;;
24443;SDS011;13346;50.984;5.822;2022-10-03T02:12:50;12.60;;;7.23;;
24443;SDS011;13346;50.984;5.822;2022-10-03T02:15:26;16.33;;;7.93;;
24443;SDS011;13346;50.984;5.822;2022-10-03T02:18:00;12.20;;;6.17;;
24443;SDS011;13346;50.984;5.822;2022-10-03T02:20:40;10.40;;;6.37;;
24443;SDS011;13346;50.984;5.822;2022-10-03T02:26:08;16.70;;;6.90;;
24443;SDS011;13346;50.984;5.822;2022-10-03T02:28:58;7.43;;;6.43;;
24443;SDS011;13346;50.984;5.822;2022-10-03T02:31:46;10.93;;;7.07;;
24443;SDS011;13346;50.984;5.822;2022-10-03T02:34:55;8.43;;;6.60;;
24443;SDS011;13346;50.984;5.822;2022-10-03T02:37:48;12.23;;;6.90;;
24443;SDS011;13346;50.984;5.822;2022-10-03T02:40:45;15.60;;;7.53;;
24443;SDS011;13346;50.984;5.822;2022-10-03T02:43:46;12.40;;;6.13;;
24443;SDS011;13346;50.984;5.822;2022-10-03T02:56:37;19.67;;;8.63;;
24443;SDS011;13346;50.984;5.822;2022-10-03T03:05:39;14.37;;;7.10;;
24443;SDS011;13346;50.984;5.822;2022-10-03T03:08:35;11.27;;;7.17;;
24443;SDS011;13346;50.984;5.822;2022-10-03T03:11:32;15.97;;;7.67;;
24443;SDS011;13346;50.984;5.822;2022-10-03T03:17:29;11.60;;;7.70;;
24443;SDS011;13346;50.984;5.822;2022-10-03T03:23:12;14.70;;;8.67;;
24443;SDS011;13346;50.984;5.822;2022-10-03T03:25:59;15.27;;;7.53;;
24443;SDS011;13346;50.984;5.822;2022-10-03T03:28:50;22.20;;;8.50;;
24443;SDS011;13346;50.984;5.822;2022-10-03T03:31:27;13.77;;;7.97;;
24443;SDS011;13346;50.984;5.822;2022-10-03T03:34:02;14.47;;;8.33;;
24443;SDS011;13346;50.984;5.822;2022-10-03T03:36:36;16.87;;;8.30;;
24443;SDS011;13346;50.984;5.822;2022-10-03T03:39:15;11.93;;;8.07;;
24443;SDS011;13346;50.984;5.822;2022-10-03T03:41:55;12.80;;;8.63;;
24443;SDS011;13346;50.984;5.822;2022-10-03T03:44:43;20.03;;;9.90;;
24443;SDS011;13346;50.984;5.822;2022-10-03T03:47:33;14.23;;;8.60;;
24443;SDS011;13346;50.984;5.822;2022-10-03T03:53:04;14.27;;;9.47;;
24443;SDS011;13346;50.984;5.822;2022-10-03T03:56:01;15.50;;;8.93;;
24443;SDS011;13346;50.984;5.822;2022-10-03T03:58:41;15.10;;;10.33;;
24443;SDS011;13346;50.984;5.822;2022-10-03T04:01:24;11.73;;;8.93;;
24443;SDS011;13346;50.984;5.822;2022-10-03T04:04:05;11.27;;;8.57;;
24443;SDS011;13346;50.984;5.822;2022-10-03T04:06:43;20.77;;;9.63;;
24443;SDS011;13346;50.984;5.822;2022-10-03T04:12:39;16.53;;;10.03;;
24443;SDS011;13346;50.984;5.822;2022-10-03T04:18:22;15.57;;;9.67;;
24443;SDS011;13346;50.984;5.822;2022-10-03T04:21:27;20.47;;;9.30;;
24443;SDS011;13346;50.984;5.822;2022-10-03T04:24:17;15.47;;;10.33;;
24443;SDS011;13346;50.984;5.822;2022-10-03T04:27:01;16.53;;;10.90;;
24443;SDS011;13346;50.984;5.822;2022-10-03T04:29:42;20.80;;;12.03;;
24443;SDS011;13346;50.984;5.822;2022-10-03T04:32:25;14.20;;;10.17;;
24443;SDS011;13346;50.984;5.822;2022-10-03T04:35:15;15.83;;;11.00;;
24443;SDS011;13346;50.984;5.822;2022-10-03T04:37:55;13.43;;;10.60;;
24443;SDS011;13346;50.984;5.822;2022-10-03T04:40:38;12.87;;;10.33;;
24443;SDS011;13346;50.984;5.822;2022-10-03T04:43:17;21.90;;;10.77;;
24443;SDS011;13346;50.984;5.822;2022-10-03T04:46:04;14.33;;;10.27;;
24443;SDS011;13346;50.984;5.822;2022-10-03T04:48:44;21.67;;;10.77;;
24443;SDS011;13346;50.984;5.822;2022-10-03T04:51:22;14.23;;;10.87;;
24443;SDS011;13346;50.984;5.822;2022-10-03T04:53:57;17.57;;;9.53;;
24443;SDS011;13346;50.984;5.822;2022-10-03T04:56:39;12.90;;;9.03;;
24443;SDS011;13346;50.984;5.822;2022-10-03T05:02:22;20.43;;;9.80;;
24443;SDS011;13346;50.984;5.822;2022-10-03T05:05:07;18.07;;;11.03;;
24443;SDS011;13346;50.984;5.822;2022-10-03T05:07:52;16.87;;;9.97;;
24443;SDS011;13346;50.984;5.822;2022-10-03T05:10:29;14.73;;;10.23;;
24443;SDS011;13346;50.984;5.822;2022-10-03T05:13:14;10.77;;;9.20;;
24443;SDS011;13346;50.984;5.822;2022-10-03T05:15:50;14.93;;;10.10;;
24443;SDS011;13346;50.984;5.822;2022-10-03T05:18:28;18.70;;;11.30;;
24443;SDS011;13346;50.984;5.822;2022-10-03T05:21:01;19.80;;;11.27;;
24443;SDS011;13346;50.984;5.822;2022-10-03T05:23:39;21.27;;;12.10;;
24443;SDS011;13346;50.984;5.822;2022-10-03T05:26:17;16.63;;;11.70;;
24443;SDS011;13346;50.984;5.822;2022-10-03T05:28:51;21.47;;;10.97;;
24443;SDS011;13346;50.984;5.822;2022-10-03T05:31:27;15.30;;;10.47;;
24443;SDS011;13346;50.984;5.822;2022-10-03T05:34:09;17.50;;;9.93;;
24443;SDS011;13346;50.984;5.822;2022-10-03T05:36:56;19.00;;;11.63;;
24443;SDS011;13346;50.984;5.822;2022-10-03T05:39:41;18.90;;;10.43;;
24443;SDS011;13346;50.984;5.822;2022-10-03T05:45:16;13.77;;;9.57;;
24443;SDS011;13346;50.984;5.822;2022-10-03T05:47:49;19.23;;;10.87;;
24443;SDS011;13346;50.984;5.822;2022-10-03T05:50:40;12.33;;;10.87;;
24443;SDS011;13346;50.984;5.822;2022-10-03T05:53:35;18.03;;;11.00;;
24443;SDS011;13346;50.984;5.822;2022-10-03T05:56:34;21.13;;;10.93;;
24443;SDS011;13346;50.984;5.822;2022-10-03T05:59:35;16.63;;;10.27;;
24443;SDS011;13346;50.984;5.822;2022-10-03T06:02:28;15.27;;;10.60;;
24443;SDS011;13346;50.984;5.822;2022-10-03T06:08:20;14.70;;;10.50;;
24443;SDS011;13346;50.984;5.822;2022-10-03T06:11:13;22.73;;;12.10;;
24443;SDS011;13346;50.984;5.822;2022-10-03T06:14:06;16.97;;;10.67;;
24443;SDS011;13346;50.984;5.822;2022-10-03T06:16:53;15.20;;;10.10;;
24443;SDS011;13346;50.984;5.822;2022-10-03T06:19:36;17.57;;;10.37;;
24443;SDS011;13346;50.984;5.822;2022-10-03T06:22:23;15.87;;;10.40;;
24443;SDS011;13346;50.984;5.822;2022-10-03T06:28:15;14.67;;;10.60;;
24443;SDS011;13346;50.984;5.822;2022-10-03T06:37:38;17.37;;;9.20;;
24443;SDS011;13346;50.984;5.822;2022-10-03T06:40:39;17.07;;;10.00;;
24443;SDS011;13346;50.984;5.822;2022-10-03T06:43:39;12.00;;;8.47;;
24443;SDS011;13346;50.984;5.822;2022-10-03T06:49:25;14.57;;;9.77;;
24443;SDS011;13346;50.984;5.822;2022-10-03T06:52:19;15.27;;;8.83;;
24443;SDS011;13346;50.984;5.822;2022-10-03T06:55:26;13.90;;;8.90;;
24443;SDS011;13346;50.984;5.822;2022-10-03T07:01:32;11.73;;;8.87;;
24443;SDS011;13346;50.984;5.822;2022-10-03T07:04:30;12.20;;;8.13;;
24443;SDS011;13346;50.984;5.822;2022-10-03T07:10:44;18.07;;;11.13;;
24443;SDS011;13346;50.984;5.822;2022-10-03T07:13:30;23.03;;;11.73;;
24443;SDS011;13346;50.984;5.822;2022-10-03T07:16:43;14.43;;;9.33;;
24443;SDS011;13346;50.984;5.822;2022-10-03T07:19:51;14.23;;;7.77;;
24443;SDS011;13346;50.984;5.822;2022-10-03T07:25:55;14.53;;;9.30;;
24443;SDS011;13346;50.984;5.822;2022-10-03T07:28:56;11.50;;;8.73;;
24443;SDS011;13346;50.984;5.822;2022-10-03T07:34:50;11.57;;;9.47;;
24443;SDS011;13346;50.984;5.822;2022-10-03T07:41:16;14.17;;;9.17;;
24443;SDS011;13346;50.984;5.822;2022-10-03T07:43:52;12.00;;;8.73;;
24443;SDS011;13346;50.984;5.822;2022-10-03T07:47:00;13.30;;;8.40;;
24443;SDS011;13346;50.984;5.822;2022-10-03T07:52:58;17.10;;;8.90;;
24443;SDS011;13346;50.984;5.822;2022-10-03T08:01:28;17.60;;;11.17;;
24443;SDS011;13346;50.984;5.822;2022-10-03T08:04:35;13.33;;;8.50;;
24443;SDS011;13346;50.984;5.822;2022-10-03T08:07:28;13.53;;;9.93;;
24443;SDS011;13346;50.984;5.822;2022-10-03T08:10:09;12.53;;;9.90;;
24443;SDS011;13346;50.984;5.822;2022-10-03T08:13:00;12.43;;;9.80;;
24443;SDS011;13346;50.984;5.822;2022-10-03T08:15:54;17.43;;;9.87;;
24443;SDS011;13346;50.984;5.822;2022-10-03T08:21:27;20.00;;;10.33;;
24443;SDS011;13346;50.984;5.822;2022-10-03T08:24:19;15.30;;;10.40;;
24443;SDS011;13346;50.984;5.822;2022-10-03T08:27:03;16.57;;;11.63;;
24443;SDS011;13346;50.984;5.822;2022-10-03T08:33:01;21.63;;;10.93;;
24443;SDS011;13346;50.984;5.822;2022-10-03T08:36:02;12.77;;;11.03;;
24443;SDS011;13346;50.984;5.822;2022-10-03T08:38:47;16.80;;;11.00;;
24443;SDS011;13346;50.984;5.822;2022-10-03T08:47:45;20.83;;;12.87;;
24443;SDS011;13346;50.984;5.822;2022-10-03T08:50:46;21.87;;;12.30;;
24443;SDS011;13346;50.984;5.822;2022-10-03T08:56:39;22.93;;;13.20;;
24443;SDS011;13346;50.984;5.822;2022-10-03T08:59:28;17.17;;;12.80;;
24443;SDS011;13346;50.984;5.822;2022-10-03T09:05:47;18.27;;;12.23;;
24443;SDS011;13346;50.984;5.822;2022-10-03T09:09:02;15.03;;;12.20;;
24443;SDS011;13346;50.984;5.822;2022-10-03T09:12:11;13.93;;;11.93;;
24443;SDS011;13346;50.984;5.822;2022-10-03T09:15:03;18.00;;;12.83;;
24443;SDS011;13346;50.984;5.822;2022-10-03T09:17:54;18.00;;;12.03;;
24443;SDS011;13346;50.984;5.822;2022-10-03T09:23:49;11.30;;;9.23;;
24443;SDS011;13346;50.984;5.822;2022-10-03T09:26:44;11.57;;;8.97;;
24443;SDS011;13346;50.984;5.822;2022-10-03T09:30:00;9.80;;;8.00;;
24443;SDS011;13346;50.984;5.822;2022-10-03T09:32:56;12.05;;;9.32;;
24443;SDS011;13346;50.984;5.822;2022-10-03T09:35:58;10.00;;;9.00;;
24443;SDS011;13346;50.984;5.822;2022-10-03T09:38:47;11.30;;;8.15;;
24443;SDS011;13346;50.984;5.822;2022-10-03T09:41:53;14.87;;;7.40;;
24443;SDS011;13346;50.984;5.822;2022-10-03T09:47:54;16.60;;;9.50;;
24443;SDS011;13346;50.984;5.822;2022-10-03T09:57:17;9.98;;;8.80;;
24443;SDS011;13346;50.984;5.822;2022-10-03T10:00:25;9.75;;;7.60;;
24443;SDS011;13346;50.984;5.822;2022-10-03T10:03:08;12.40;;;7.70;;
24443;SDS011;13346;50.984;5.822;2022-10-03T10:06:00;13.77;;;8.10;;
24443;SDS011;13346;50.984;5.822;2022-10-03T10:08:41;10.68;;;5.90;;
24443;SDS011;13346;50.984;5.822;2022-10-03T10:11:34;15.77;;;7.18;;
24443;SDS011;13346;50.984;5.822;2022-10-03T10:14:28;8.05;;;6.88;;
24443;SDS011;13346;50.984;5.822;2022-10-03T10:17:33;11.93;;;6.78;;
24443;SDS011;13346;50.984;5.822;2022-10-03T10:23:44;10.00;;;5.90;;
24443;SDS011;13346;50.984;5.822;2022-10-03T10:26:40;10.00;;;6.07;;
24443;SDS011;13346;50.984;5.822;2022-10-03T10:32:42;4.93;;;4.47;;
24443;SDS011;13346;50.984;5.822;2022-10-03T10:39:07;11.15;;;5.30;;
24443;SDS011;13346;50.984;5.822;2022-10-03T10:45:18;6.80;;;3.55;;
24443;SDS011;13346;50.984;5.822;2022-10-03T10:51:12;9.73;;;5.45;;
24443;SDS011;13346;50.984;5.822;2022-10-03T10:54:16;7.72;;;4.22;;
24443;SDS011;13346;50.984;5.822;2022-10-03T11:00:17;6.78;;;4.18;;
24443;SDS011;13346;50.984;5.822;2022-10-03T11:15:45;3.70;;;2.00;;
24443;SDS011;13346;50.984;5.822;2022-10-03T11:24:49;6.90;;;2.45;;
24443;SDS011;13346;50.984;5.822;2022-10-03T11:30:55;1.90;;;1.20;;
24443;SDS011;13346;50.984;5.822;2022-10-03T11:34:18;3.40;;;1.58;;
24443;SDS011;13346;50.984;5.822;2022-10-03T11:37:08;2.72;;;1.20;;
24443;SDS011;13346;50.984;5.822;2022-10-03T11:39:58;3.65;;;1.65;;
24443;SDS011;13346;50.984;5.822;2022-10-03T11:42:44;2.10;;;1.10;;
24443;SDS011;13346;50.984;5.822;2022-10-03T11:45:21;3.05;;;1.48;;
24443;SDS011;13346;50.984;5.822;2022-10-03T11:47:56;1.35;;;1.25;;
24443;SDS011;13346;50.984;5.822;2022-10-03T11:50:47;1.90;;;1.40;;
24443;SDS011;13346;50.984;5.822;2022-10-03T11:53:21;2.22;;;1.52;;
24443;SDS011;13346;50.984;5.822;2022-10-03T11:56:04;2.55;;;1.45;;
24443;SDS011;13346;50.984;5.822;2022-10-03T11:58:50;4.93;;;1.63;;
24443;SDS011;13346;50.984;5.822;2022-10-03T12:01:27;2.88;;;1.23;;
24443;SDS011;13346;50.984;5.822;2022-10-03T12:04:08;2.92;;;1.52;;
24443;SDS011;13346;50.984;5.822;2022-10-03T12:06:56;1.95;;;1.60;;
24443;SDS011;13346;50.984;5.822;2022-10-03T12:09:53;4.78;;;1.52;;
24443;SDS011;13346;50.984;5.822;2022-10-03T12:12:29;1.60;;;1.50;;
24443;SDS011;13346;50.984;5.822;2022-10-03T12:15:05;2.08;;;1.40;;
24443;SDS011;13346;50.984;5.822;2022-10-03T12:17:45;4.07;;;1.70;;
24443;SDS011;13346;50.984;5.822;2022-10-03T12:20:22;1.33;;;1.23;;
24443;SDS011;13346;50.984;5.822;2022-10-03T12:22:54;3.88;;;1.20;;
24443;SDS011;13346;50.984;5.822;2022-10-03T12:25:29;5.18;;;1.63;;
24443;SDS011;13346;50.984;5.822;2022-10-03T12:28:03;1.77;;;1.58;;
24443;SDS011;13346;50.984;5.822;2022-10-03T12:30:41;3.38;;;1.05;;
24443;SDS011;13346;50.984;5.822;2022-10-03T12:33:20;6.13;;;1.50;;
24443;SDS011;13346;50.984;5.822;2022-10-03T12:36:01;3.58;;;1.30;;
24443;SDS011;13346;50.984;5.822;2022-10-03T12:38:47;7.93;;;1.60;;
24443;SDS011;13346;50.984;5.822;2022-10-03T12:41:32;1.92;;;1.15;;
24443;SDS011;13346;50.984;5.822;2022-10-03T12:44:18;3.90;;;1.25;;
24443;SDS011;13346;50.984;5.822;2022-10-03T12:46:54;6.25;;;2.03;;
24443;SDS011;13346;50.984;5.822;2022-10-03T12:49:33;3.60;;;2.15;;
24443;SDS011;13346;50.984;5.822;2022-10-03T12:52:15;2.10;;;1.48;;
24443;SDS011;13346;50.984;5.822;2022-10-03T12:54:49;2.78;;;1.65;;
24443;SDS011;13346;50.984;5.822;2022-10-03T13:00:19;1.60;;;1.45;;
24443;SDS011;13346;50.984;5.822;2022-10-03T13:06:05;1.17;;;1.17;;
24443;SDS011;13346;50.984;5.822;2022-10-03T13:08:52;4.38;;;1.20;;
24443;SDS011;13346;50.984;5.822;2022-10-03T13:11:30;1.25;;;1.15;;
24443;SDS011;13346;50.984;5.822;2022-10-03T13:14:07;2.58;;;1.40;;
24443;SDS011;13346;50.984;5.822;2022-10-03T13:16:49;2.95;;;1.42;;
24443;SDS011;13346;50.984;5.822;2022-10-03T13:19:26;4.55;;;1.30;;
24443;SDS011;13346;50.984;5.822;2022-10-03T13:22:03;3.47;;;1.33;;
24443;SDS011;13346;50.984;5.822;2022-10-03T13:24:48;1.50;;;1.20;;
24443;SDS011;13346;50.984;5.822;2022-10-03T13:27:29;3.13;;;1.63;;
24443;SDS011;13346;50.984;5.822;2022-10-03T13:30:02;3.40;;;1.48;;
24443;SDS011;13346;50.984;5.822;2022-10-03T13:32:39;4.70;;;1.40;;
24443;SDS011;13346;50.984;5.822;2022-10-03T13:35:18;3.03;;;1.23;;
24443;SDS011;13346;50.984;5.822;2022-10-03T13:38:13;3.75;;;1.25;;
24443;SDS011;13346;50.984;5.822;2022-10-03T13:40:53;3.10;;;1.63;;
24443;SDS011;13346;50.984;5.822;2022-10-03T13:43:26;3.65;;;1.65;;
24443;SDS011;13346;50.984;5.822;2022-10-03T13:46:00;3.63;;;1.60;;
24443;SDS011;13346;50.984;5.822;2022-10-03T13:48:30;1.45;;;1.35;;
24443;SDS011;13346;50.984;5.822;2022-10-03T13:51:00;2.08;;;1.42;;
24443;SDS011;13346;50.984;5.822;2022-10-03T13:56:48;3.63;;;1.30;;
24443;SDS011;13346;50.984;5.822;2022-10-03T13:59:40;1.67;;;1.15;;
24443;SDS011;13346;50.984;5.822;2022-10-03T14:02:28;2.33;;;1.10;;
24443;SDS011;13346;50.984;5.822;2022-10-03T14:05:40;2.83;;;1.48;;
24443;SDS011;13346;50.984;5.822;2022-10-03T14:08:20;1.27;;;0.95;;
24443;SDS011;13346;50.984;5.822;2022-10-03T14:11:07;3.22;;;1.27;;
24443;SDS011;13346;50.984;5.822;2022-10-03T14:13:54;1.52;;;1.35;;
24443;SDS011;13346;50.984;5.822;2022-10-03T14:16:35;5.30;;;1.73;;
24443;SDS011;13346;50.984;5.822;2022-10-03T14:19:08;5.03;;;1.58;;
24443;SDS011;13346;50.984;5.822;2022-10-03T14:21:51;3.67;;;1.70;;
24443;SDS011;13346;50.984;5.822;2022-10-03T14:24:33;4.45;;;1.15;;
24443;SDS011;13346;50.984;5.822;2022-10-03T14:27:19;2.38;;;1.27;;
24443;SDS011;13346;50.984;5.822;2022-10-03T14:30:03;1.52;;;1.40;;
24443;SDS011;13346;50.984;5.822;2022-10-03T14:32:38;3.55;;;1.40;;
24443;SDS011;13346;50.984;5.822;2022-10-03T14:35:16;3.00;;;1.92;;
24443;SDS011;13346;50.984;5.822;2022-10-03T14:37:53;2.65;;;1.92;;
24443;SDS011;13346;50.984;5.822;2022-10-03T14:40:26;3.70;;;1.75;;
24443;SDS011;13346;50.984;5.822;2022-10-03T14:43:10;1.65;;;1.02;;
24443;SDS011;13346;50.984;5.822;2022-10-03T14:45:50;1.73;;;1.23;;
24443;SDS011;13346;50.984;5.822;2022-10-03T14:48:21;3.80;;;1.70;;
24443;SDS011;13346;50.984;5.822;2022-10-03T14:50:54;2.17;;;1.60;;
24443;SDS011;13346;50.984;5.822;2022-10-03T14:53:29;1.38;;;1.25;;
24443;SDS011;13346;50.984;5.822;2022-10-03T14:55:58;1.42;;;1.33;;
24443;SDS011;13346;50.984;5.822;2022-10-03T14:58:31;3.75;;;1.67;;
24443;SDS011;13346;50.984;5.822;2022-10-03T15:01:03;1.75;;;1.08;;
24443;SDS011;13346;50.984;5.822;2022-10-03T15:03:37;1.55;;;1.45;;
24443;SDS011;13346;50.984;5.822;2022-10-03T15:06:18;1.33;;;1.23;;
24443;SDS011;13346;50.984;5.822;2022-10-03T15:08:57;2.30;;;1.40;;
24443;SDS011;13346;50.984;5.822;2022-10-03T15:11:27;1.38;;;1.02;;
24443;SDS011;13346;50.984;5.822;2022-10-03T15:13:58;1.55;;;1.45;;
24443;SDS011;13346;50.984;5.822;2022-10-03T15:16:30;2.17;;;1.20;;
24443;SDS011;13346;50.984;5.822;2022-10-03T15:19:04;3.25;;;1.58;;
24443;SDS011;13346;50.984;5.822;2022-10-03T15:21:35;3.15;;;1.88;;
24443;SDS011;13346;50.984;5.822;2022-10-03T15:24:08;4.40;;;1.52;;
24443;SDS011;13346;50.984;5.822;2022-10-03T15:26:39;4.38;;;1.27;;
24443;SDS011;13346;50.984;5.822;2022-10-03T15:29:10;2.45;;;1.50;;
24443;SDS011;13346;50.984;5.822;2022-10-03T15:31:43;3.53;;;1.63;;
24443;SDS011;13346;50.984;5.822;2022-10-03T15:34:14;1.70;;;1.52;;
24443;SDS011;13346;50.984;5.822;2022-10-03T15:36:46;5.65;;;1.70;;
24443;SDS011;13346;50.984;5.822;2022-10-03T15:39:17;2.80;;;1.40;;
24443;SDS011;13346;50.984;5.822;2022-10-03T15:41:50;3.25;;;1.45;;
24443;SDS011;13346;50.984;5.822;2022-10-03T15:44:21;1.65;;;1.48;;
24443;SDS011;13346;50.984;5.822;2022-10-03T15:46:58;5.07;;;1.70;;
24443;SDS011;13346;50.984;5.822;2022-10-03T15:49:31;4.32;;;1.60;;
24443;SDS011;13346;50.984;5.822;2022-10-03T15:52:05;2.10;;;1.20;;
24443;SDS011;13346;50.984;5.822;2022-10-03T15:54:42;1.90;;;1.70;;
24443;SDS011;13346;50.984;5.822;2022-10-03T15:57:16;2.70;;;1.30;;
24443;SDS011;13346;50.984;5.822;2022-10-03T15:59:49;2.03;;;1.45;;
24443;SDS011;13346;50.984;5.822;2022-10-03T16:02:22;2.33;;;1.33;;
24443;SDS011;13346;50.984;5.822;2022-10-03T16:04:53;2.08;;;1.13;;
24443;SDS011;13346;50.984;5.822;2022-10-03T16:07:23;1.70;;;1.60;;
24443;SDS011;13346;50.984;5.822;2022-10-03T16:10:01;5.65;;;1.67;;
24443;SDS011;13346;50.984;5.822;2022-10-03T16:12:45;1.10;;;1.00;;
24443;SDS011;13346;50.984;5.822;2022-10-03T16:15:20;3.33;;;1.27;;
24443;SDS011;13346;50.984;5.822;2022-10-03T16:17:53;3.42;;;1.63;;
24443;SDS011;13346;50.984;5.822;2022-10-03T16:20:27;5.95;;;1.60;;
24443;SDS011;13346;50.984;5.822;2022-10-03T16:23:02;2.15;;;1.50;;
24443;SDS011;13346;50.984;5.822;2022-10-03T16:25:39;3.03;;;1.85;;
24443;SDS011;13346;50.984;5.822;2022-10-03T16:28:13;2.95;;;1.42;;
24443;SDS011;13346;50.984;5.822;2022-10-03T16:30:44;3.13;;;1.95;;
24443;SDS011;13346;50.984;5.822;2022-10-03T16:33:21;4.75;;;2.05;;
24443;SDS011;13346;50.984;5.822;2022-10-03T16:35:52;5.53;;;2.80;;
24443;SDS011;13346;50.984;5.822;2022-10-03T16:38:23;3.80;;;1.83;;
24443;SDS011;13346;50.984;5.822;2022-10-03T16:40:54;2.67;;;1.73;;
24443;SDS011;13346;50.984;5.822;2022-10-03T16:43:23;2.15;;;1.50;;
24443;SDS011;13346;50.984;5.822;2022-10-03T16:45:52;4.65;;;2.15;;
24443;SDS011;13346;50.984;5.822;2022-10-03T16:48:22;2.45;;;1.38;;
24443;SDS011;13346;50.984;5.822;2022-10-03T16:51:14;3.25;;;1.90;;
24443;SDS011;13346;50.984;5.822;2022-10-03T16:53:45;3.83;;;1.77;;
24443;SDS011;13346;50.984;5.822;2022-10-03T16:56:15;2.25;;;1.80;;
24443;SDS011;13346;50.984;5.822;2022-10-03T16:58:47;4.15;;;2.20;;
24443;SDS011;13346;50.984;5.822;2022-10-03T17:01:22;4.68;;;1.60;;
24443;SDS011;13346;50.984;5.822;2022-10-03T17:03:56;5.78;;;2.03;;
24443;SDS011;13346;50.984;5.822;2022-10-03T17:06:39;8.75;;;2.28;;
24443;SDS011;13346;50.984;5.822;2022-10-03T17:09:15;4.40;;;2.40;;
24443;SDS011;13346;50.984;5.822;2022-10-03T17:11:50;5.30;;;2.47;;
24443;SDS011;13346;50.984;5.822;2022-10-03T17:14:21;6.63;;;2.13;;
24443;SDS011;13346;50.984;5.822;2022-10-03T17:16:54;2.10;;;1.60;;
24443;SDS011;13346;50.984;5.822;2022-10-03T17:19:29;3.90;;;1.97;;
24443;SDS011;13346;50.984;5.822;2022-10-03T17:22:05;7.07;;;2.93;;
24443;SDS011;13346;50.984;5.822;2022-10-03T17:24:44;3.07;;;2.37;;
24443;SDS011;13346;50.984;5.822;2022-10-03T17:27:22;6.57;;;2.43;;
24443;SDS011;13346;50.984;5.822;2022-10-03T17:29:55;2.63;;;2.03;;
24443;SDS011;13346;50.984;5.822;2022-10-03T17:32:27;4.70;;;2.53;;
24443;SDS011;13346;50.984;5.822;2022-10-03T17:35:03;7.93;;;3.70;;
24443;SDS011;13346;50.984;5.822;2022-10-03T17:37:50;6.67;;;2.60;;
24443;SDS011;13346;50.984;5.822;2022-10-03T17:40:31;6.10;;;2.73;;
24443;SDS011;13346;50.984;5.822;2022-10-03T17:43:15;6.70;;;3.10;;
24443;SDS011;13346;50.984;5.822;2022-10-03T17:45:51;4.17;;;2.60;;
24443;SDS011;13346;50.984;5.822;2022-10-03T17:48:29;3.80;;;3.30;;
24443;SDS011;13346;50.984;5.822;2022-10-03T17:51:09;5.50;;;3.37;;
24443;SDS011;13346;50.984;5.822;2022-10-03T17:54:01;5.77;;;3.17;;
24443;SDS011;13346;50.984;5.822;2022-10-03T17:56:35;9.17;;;3.63;;
24443;SDS011;13346;50.984;5.822;2022-10-03T17:59:11;9.17;;;4.20;;
24443;SDS011;13346;50.984;5.822;2022-10-03T18:01:41;12.40;;;4.30;;
24443;SDS011;13346;50.984;5.822;2022-10-03T18:04:13;7.63;;;3.77;;
24443;SDS011;13346;50.984;5.822;2022-10-03T18:06:47;11.33;;;4.63;;
24443;SDS011;13346;50.984;5.822;2022-10-03T18:12:08;10.00;;;4.23;;
24443;SDS011;13346;50.984;5.822;2022-10-03T18:17:56;7.87;;;3.70;;
24443;SDS011;13346;50.984;5.822;2022-10-03T18:20:38;8.77;;;4.10;;
24443;SDS011;13346;50.984;5.822;2022-10-03T18:23:15;8.00;;;4.23;;
24443;SDS011;13346;50.984;5.822;2022-10-03T18:25:51;11.00;;;4.37;;
24443;SDS011;13346;50.984;5.822;2022-10-03T18:28:26;10.37;;;3.73;;
24443;SDS011;13346;50.984;5.822;2022-10-03T18:30:58;8.37;;;3.50;;
24443;SDS011;13346;50.984;5.822;2022-10-03T18:33:31;5.47;;;3.93;;
24443;SDS011;13346;50.984;5.822;2022-10-03T18:36:06;5.13;;;3.67;;
24443;SDS011;13346;50.984;5.822;2022-10-03T18:38:37;7.47;;;4.40;;
24443;SDS011;13346;50.984;5.822;2022-10-03T18:41:09;4.53;;;3.83;;
24443;SDS011;13346;50.984;5.822;2022-10-03T18:43:42;7.00;;;3.77;;
24443;SDS011;13346;50.984;5.822;2022-10-03T18:46:14;4.77;;;3.90;;
24443;SDS011;13346;50.984;5.822;2022-10-03T18:48:55;5.33;;;3.90;;
24443;SDS011;13346;50.984;5.822;2022-10-03T18:51:29;8.23;;;4.80;;
24443;SDS011;13346;50.984;5.822;2022-10-03T18:54:03;6.90;;;4.60;;
24443;SDS011;13346;50.984;5.822;2022-10-03T18:56:39;5.50;;;4.10;;
24443;SDS011;13346;50.984;5.822;2022-10-03T18:59:12;4.77;;;4.37;;
24443;SDS011;13346;50.984;5.822;2022-10-03T19:01:43;6.70;;;5.03;;
24443;SDS011;13346;50.984;5.822;2022-10-03T19:04:19;13.03;;;4.93;;
24443;SDS011;13346;50.984;5.822;2022-10-03T19:07:00;5.03;;;4.37;;
24443;SDS011;13346;50.984;5.822;2022-10-03T19:09:39;8.40;;;4.93;;